sensor_id;sensor_type;location;lat;lon;timestamp;P1;durP1;ratioP1;P2;durP2;ratioP2
49828;SDS011;35723;51.194;5.112;2023-06-26T00:01:26;10.55;;;6.13;;
49828;SDS011;35723;51.194;5.112;2023-06-26T00:03:54;13.45;;;6.57;;
49828;SDS011;35723;51.194;5.112;2023-06-26T00:06:20;13.70;;;6.20;;
49828;SDS011;35723;51.194;5.112;2023-06-26T00:08:49;12.20;;;6.28;;
49828;SDS011;35723;51.194;5.112;2023-06-26T00:11:15;12.35;;;5.90;;
49828;SDS011;35723;51.194;5.112;2023-06-26T00:13:41;11.15;;;6.00;;
49828;SDS011;35723;51.194;5.112;2023-06-26T00:16:07;10.20;;;5.78;;
49828;SDS011;35723;51.194;5.112;2023-06-26T00:18:32;12.65;;;6.65;;
49828;SDS011;35723;51.194;5.112;2023-06-26T00:20:58;12.93;;;5.88;;
49828;SDS011;35723;51.194;5.112;2023-06-26T00:23:23;14.38;;;6.88;;
49828;SDS011;35723;51.194;5.112;2023-06-26T00:25:49;12.07;;;6.35;;
49828;SDS011;35723;51.194;5.112;2023-06-26T00:28:15;10.93;;;6.50;;
49828;SDS011;35723;51.194;5.112;2023-06-26T00:30:40;12.45;;;6.80;;
49828;SDS011;35723;51.194;5.112;2023-06-26T00:33:06;12.00;;;6.72;;
49828;SDS011;35723;51.194;5.112;2023-06-26T00:35:31;13.15;;;6.40;;
49828;SDS011;35723;51.194;5.112;2023-06-26T00:37:57;11.38;;;6.15;;
49828;SDS011;35723;51.194;5.112;2023-06-26T00:40:23;14.25;;;6.75;;
49828;SDS011;35723;51.194;5.112;2023-06-26T00:42:49;13.77;;;6.18;;
49828;SDS011;35723;51.194;5.112;2023-06-26T00:45:15;12.52;;;6.32;;
49828;SDS011;35723;51.194;5.112;2023-06-26T00:47:41;14.10;;;6.93;;
49828;SDS011;35723;51.194;5.112;2023-06-26T00:50:06;13.57;;;6.00;;
49828;SDS011;35723;51.194;5.112;2023-06-26T00:52:33;12.90;;;6.13;;
49828;SDS011;35723;51.194;5.112;2023-06-26T00:54:59;12.48;;;6.10;;
49828;SDS011;35723;51.194;5.112;2023-06-26T00:57:25;14.68;;;5.60;;
49828;SDS011;35723;51.194;5.112;2023-06-26T00:59:51;15.27;;;5.93;;
49828;SDS011;35723;51.194;5.112;2023-06-26T01:02:16;11.73;;;5.30;;
49828;SDS011;35723;51.194;5.112;2023-06-26T01:04:48;15.90;;;5.20;;
49828;SDS011;35723;51.194;5.112;2023-06-26T01:07:16;10.88;;;4.82;;
49828;SDS011;35723;51.194;5.112;2023-06-26T01:09:43;14.63;;;5.05;;
49828;SDS011;35723;51.194;5.112;2023-06-26T01:12:12;12.45;;;5.13;;
49828;SDS011;35723;51.194;5.112;2023-06-26T01:14:38;10.40;;;4.70;;
49828;SDS011;35723;51.194;5.112;2023-06-26T01:17:04;13.38;;;4.78;;
49828;SDS011;35723;51.194;5.112;2023-06-26T01:19:31;14.30;;;4.78;;
49828;SDS011;35723;51.194;5.112;2023-06-26T01:28:03;10.10;;;4.30;;
49828;SDS011;35723;51.194;5.112;2023-06-26T01:30:32;12.73;;;4.40;;
49828;SDS011;35723;51.194;5.112;2023-06-26T01:33:01;12.48;;;4.25;;
49828;SDS011;35723;51.194;5.112;2023-06-26T01:35:28;12.63;;;4.57;;
49828;SDS011;35723;51.194;5.112;2023-06-26T01:38:10;9.85;;;4.60;;
49828;SDS011;35723;51.194;5.112;2023-06-26T01:40:40;11.55;;;4.40;;
49828;SDS011;35723;51.194;5.112;2023-06-26T01:43:06;11.32;;;4.38;;
49828;SDS011;35723;51.194;5.112;2023-06-26T01:45:44;9.88;;;4.60;;
49828;SDS011;35723;51.194;5.112;2023-06-26T01:48:13;10.88;;;4.72;;
49828;SDS011;35723;51.194;5.112;2023-06-26T01:50:42;10.73;;;4.38;;
49828;SDS011;35723;51.194;5.112;2023-06-26T01:55:51;10.85;;;4.43;;
49828;SDS011;35723;51.194;5.112;2023-06-26T01:58:21;10.00;;;4.95;;
49828;SDS011;35723;51.194;5.112;2023-06-26T02:00:49;9.90;;;4.30;;
49828;SDS011;35723;51.194;5.112;2023-06-26T02:03:15;9.80;;;4.57;;
49828;SDS011;35723;51.194;5.112;2023-06-26T02:05:41;12.77;;;4.63;;
49828;SDS011;35723;51.194;5.112;2023-06-26T02:08:08;10.95;;;4.60;;
49828;SDS011;35723;51.194;5.112;2023-06-26T02:10:33;12.98;;;4.57;;
49828;SDS011;35723;51.194;5.112;2023-06-26T02:13:00;9.70;;;4.60;;
49828;SDS011;35723;51.194;5.112;2023-06-26T02:15:26;11.82;;;4.57;;
49828;SDS011;35723;51.194;5.112;2023-06-26T02:17:52;11.27;;;4.45;;
49828;SDS011;35723;51.194;5.112;2023-06-26T02:20:17;8.63;;;4.10;;
49828;SDS011;35723;51.194;5.112;2023-06-26T02:22:43;11.77;;;4.60;;
49828;SDS011;35723;51.194;5.112;2023-06-26T02:25:09;9.07;;;4.28;;
49828;SDS011;35723;51.194;5.112;2023-06-26T02:27:35;12.82;;;4.38;;
49828;SDS011;35723;51.194;5.112;2023-06-26T02:30:01;11.98;;;4.82;;
49828;SDS011;35723;51.194;5.112;2023-06-26T02:32:27;13.38;;;4.47;;
49828;SDS011;35723;51.194;5.112;2023-06-26T02:34:52;13.07;;;4.53;;
49828;SDS011;35723;51.194;5.112;2023-06-26T02:37:18;13.57;;;4.78;;
49828;SDS011;35723;51.194;5.112;2023-06-26T02:39:44;12.60;;;4.57;;
49828;SDS011;35723;51.194;5.112;2023-06-26T02:42:10;13.80;;;4.85;;
49828;SDS011;35723;51.194;5.112;2023-06-26T02:44:35;10.20;;;4.53;;
49828;SDS011;35723;51.194;5.112;2023-06-26T02:47:01;11.13;;;4.25;;
49828;SDS011;35723;51.194;5.112;2023-06-26T02:49:27;13.40;;;4.55;;
49828;SDS011;35723;51.194;5.112;2023-06-26T02:51:53;13.45;;;4.43;;
49828;SDS011;35723;51.194;5.112;2023-06-26T02:54:18;11.90;;;4.63;;
49828;SDS011;35723;51.194;5.112;2023-06-26T02:56:44;13.18;;;4.72;;
49828;SDS011;35723;51.194;5.112;2023-06-26T02:59:10;11.60;;;4.60;;
49828;SDS011;35723;51.194;5.112;2023-06-26T03:01:35;11.65;;;4.60;;
49828;SDS011;35723;51.194;5.112;2023-06-26T03:04:01;10.45;;;4.70;;
49828;SDS011;35723;51.194;5.112;2023-06-26T03:06:27;10.70;;;4.65;;
49828;SDS011;35723;51.194;5.112;2023-06-26T03:08:53;12.10;;;4.38;;
49828;SDS011;35723;51.194;5.112;2023-06-26T03:11:19;11.85;;;4.63;;
49828;SDS011;35723;51.194;5.112;2023-06-26T03:13:44;13.65;;;4.65;;
49828;SDS011;35723;51.194;5.112;2023-06-26T03:16:10;14.32;;;4.88;;
49828;SDS011;35723;51.194;5.112;2023-06-26T03:18:36;14.23;;;4.70;;
49828;SDS011;35723;51.194;5.112;2023-06-26T03:21:02;14.35;;;5.10;;
49828;SDS011;35723;51.194;5.112;2023-06-26T03:23:27;16.00;;;4.97;;
49828;SDS011;35723;51.194;5.112;2023-06-26T03:25:53;13.75;;;4.95;;
49828;SDS011;35723;51.194;5.112;2023-06-26T03:28:19;14.27;;;4.93;;
49828;SDS011;35723;51.194;5.112;2023-06-26T03:30:44;14.60;;;4.70;;
49828;SDS011;35723;51.194;5.112;2023-06-26T03:33:10;14.32;;;4.53;;
49828;SDS011;35723;51.194;5.112;2023-06-26T03:35:36;15.02;;;4.80;;
49828;SDS011;35723;51.194;5.112;2023-06-26T03:38:03;13.27;;;4.63;;
49828;SDS011;35723;51.194;5.112;2023-06-26T03:40:29;14.48;;;4.78;;
49828;SDS011;35723;51.194;5.112;2023-06-26T03:42:55;14.48;;;5.22;;
49828;SDS011;35723;51.194;5.112;2023-06-26T03:45:20;14.88;;;5.00;;
49828;SDS011;35723;51.194;5.112;2023-06-26T03:47:46;15.25;;;5.00;;
49828;SDS011;35723;51.194;5.112;2023-06-26T03:50:18;12.35;;;5.05;;
49828;SDS011;35723;51.194;5.112;2023-06-26T03:52:45;13.82;;;4.60;;
49828;SDS011;35723;51.194;5.112;2023-06-26T03:55:10;13.70;;;4.88;;
49828;SDS011;35723;51.194;5.112;2023-06-26T03:57:36;17.65;;;5.07;;
49828;SDS011;35723;51.194;5.112;2023-06-26T04:00:02;14.52;;;4.65;;
49828;SDS011;35723;51.194;5.112;2023-06-26T04:02:36;14.07;;;4.82;;
49828;SDS011;35723;51.194;5.112;2023-06-26T04:05:02;14.82;;;4.72;;
49828;SDS011;35723;51.194;5.112;2023-06-26T04:07:29;15.77;;;4.80;;
49828;SDS011;35723;51.194;5.112;2023-06-26T04:09:56;16.80;;;5.22;;
49828;SDS011;35723;51.194;5.112;2023-06-26T04:12:22;16.92;;;4.90;;
49828;SDS011;35723;51.194;5.112;2023-06-26T04:14:47;18.88;;;4.65;;
49828;SDS011;35723;51.194;5.112;2023-06-26T04:17:13;17.58;;;5.10;;
49828;SDS011;35723;51.194;5.112;2023-06-26T04:19:39;16.80;;;5.07;;
49828;SDS011;35723;51.194;5.112;2023-06-26T04:22:04;15.85;;;4.82;;
49828;SDS011;35723;51.194;5.112;2023-06-26T04:24:30;24.15;;;5.13;;
49828;SDS011;35723;51.194;5.112;2023-06-26T04:26:56;20.83;;;5.10;;
49828;SDS011;35723;51.194;5.112;2023-06-26T04:29:22;14.93;;;5.15;;
49828;SDS011;35723;51.194;5.112;2023-06-26T04:31:50;18.20;;;5.13;;
49828;SDS011;35723;51.194;5.112;2023-06-26T04:34:16;19.15;;;5.75;;
49828;SDS011;35723;51.194;5.112;2023-06-26T04:36:42;16.50;;;4.72;;
49828;SDS011;35723;51.194;5.112;2023-06-26T04:39:11;18.95;;;5.10;;
49828;SDS011;35723;51.194;5.112;2023-06-26T04:41:37;15.40;;;4.88;;
49828;SDS011;35723;51.194;5.112;2023-06-26T04:44:03;20.50;;;5.20;;
49828;SDS011;35723;51.194;5.112;2023-06-26T04:46:28;16.85;;;5.25;;
49828;SDS011;35723;51.194;5.112;2023-06-26T04:48:54;19.23;;;5.18;;
49828;SDS011;35723;51.194;5.112;2023-06-26T04:51:22;18.38;;;4.57;;
49828;SDS011;35723;51.194;5.112;2023-06-26T04:53:49;18.45;;;5.03;;
49828;SDS011;35723;51.194;5.112;2023-06-26T04:56:15;20.08;;;5.03;;
49828;SDS011;35723;51.194;5.112;2023-06-26T04:58:40;17.13;;;4.50;;
49828;SDS011;35723;51.194;5.112;2023-06-26T05:01:06;18.90;;;5.10;;
49828;SDS011;35723;51.194;5.112;2023-06-26T05:03:32;18.88;;;4.82;;
49828;SDS011;35723;51.194;5.112;2023-06-26T05:05:58;17.98;;;4.80;;
49828;SDS011;35723;51.194;5.112;2023-06-26T05:08:24;17.63;;;4.72;;
49828;SDS011;35723;51.194;5.112;2023-06-26T05:10:51;18.10;;;4.72;;
49828;SDS011;35723;51.194;5.112;2023-06-26T05:13:18;18.65;;;4.68;;
49828;SDS011;35723;51.194;5.112;2023-06-26T05:15:45;23.65;;;4.57;;
49828;SDS011;35723;51.194;5.112;2023-06-26T05:18:11;19.08;;;4.68;;
49828;SDS011;35723;51.194;5.112;2023-06-26T05:20:37;20.17;;;4.85;;
49828;SDS011;35723;51.194;5.112;2023-06-26T05:23:03;21.02;;;4.95;;
49828;SDS011;35723;51.194;5.112;2023-06-26T05:25:29;21.75;;;4.47;;
49828;SDS011;35723;51.194;5.112;2023-06-26T05:27:56;20.48;;;4.72;;
49828;SDS011;35723;51.194;5.112;2023-06-26T05:30:25;19.70;;;4.32;;
49828;SDS011;35723;51.194;5.112;2023-06-26T05:32:51;23.10;;;5.15;;
49828;SDS011;35723;51.194;5.112;2023-06-26T05:35:18;17.92;;;4.47;;
49828;SDS011;35723;51.194;5.112;2023-06-26T05:37:46;19.88;;;4.55;;
49828;SDS011;35723;51.194;5.112;2023-06-26T05:40:15;16.38;;;4.57;;
49828;SDS011;35723;51.194;5.112;2023-06-26T05:42:44;19.48;;;4.55;;
49828;SDS011;35723;51.194;5.112;2023-06-26T05:45:10;17.98;;;4.35;;
49828;SDS011;35723;51.194;5.112;2023-06-26T05:47:36;19.42;;;4.55;;
49828;SDS011;35723;51.194;5.112;2023-06-26T05:50:02;24.45;;;4.32;;
49828;SDS011;35723;51.194;5.112;2023-06-26T05:52:29;19.15;;;4.00;;
49828;SDS011;35723;51.194;5.112;2023-06-26T05:54:55;25.50;;;4.50;;
49828;SDS011;35723;51.194;5.112;2023-06-26T05:57:25;24.23;;;4.57;;
49828;SDS011;35723;51.194;5.112;2023-06-26T05:59:52;19.80;;;4.35;;
49828;SDS011;35723;51.194;5.112;2023-06-26T06:02:18;20.00;;;4.57;;
49828;SDS011;35723;51.194;5.112;2023-06-26T06:04:44;18.02;;;4.22;;
49828;SDS011;35723;51.194;5.112;2023-06-26T06:07:10;17.45;;;4.18;;
49828;SDS011;35723;51.194;5.112;2023-06-26T06:09:36;20.50;;;4.15;;
49828;SDS011;35723;51.194;5.112;2023-06-26T06:12:02;19.17;;;3.97;;
49828;SDS011;35723;51.194;5.112;2023-06-26T06:14:32;17.08;;;3.72;;
49828;SDS011;35723;51.194;5.112;2023-06-26T06:17:01;16.90;;;3.80;;
49828;SDS011;35723;51.194;5.112;2023-06-26T06:19:27;21.60;;;3.97;;
49828;SDS011;35723;51.194;5.112;2023-06-26T06:21:52;18.15;;;3.67;;
49828;SDS011;35723;51.194;5.112;2023-06-26T06:24:19;24.13;;;4.28;;
49828;SDS011;35723;51.194;5.112;2023-06-26T06:26:45;20.25;;;4.00;;
49828;SDS011;35723;51.194;5.112;2023-06-26T06:29:10;17.08;;;3.28;;
49828;SDS011;35723;51.194;5.112;2023-06-26T06:31:36;17.17;;;3.63;;
49828;SDS011;35723;51.194;5.112;2023-06-26T06:34:02;19.48;;;4.15;;
49828;SDS011;35723;51.194;5.112;2023-06-26T06:36:27;15.63;;;3.35;;
49828;SDS011;35723;51.194;5.112;2023-06-26T06:38:53;17.63;;;3.47;;
49828;SDS011;35723;51.194;5.112;2023-06-26T06:41:19;17.75;;;3.33;;
49828;SDS011;35723;51.194;5.112;2023-06-26T06:43:45;16.88;;;3.50;;
49828;SDS011;35723;51.194;5.112;2023-06-26T06:46:11;16.13;;;3.50;;
49828;SDS011;35723;51.194;5.112;2023-06-26T06:48:36;16.65;;;3.50;;
49828;SDS011;35723;51.194;5.112;2023-06-26T06:51:02;20.92;;;3.72;;
49828;SDS011;35723;51.194;5.112;2023-06-26T06:53:28;17.88;;;3.42;;
49828;SDS011;35723;51.194;5.112;2023-06-26T06:55:54;20.02;;;3.45;;
49828;SDS011;35723;51.194;5.112;2023-06-26T06:58:20;18.02;;;3.10;;
49828;SDS011;35723;51.194;5.112;2023-06-26T07:00:45;14.30;;;2.90;;
49828;SDS011;35723;51.194;5.112;2023-06-26T07:03:11;12.15;;;2.92;;
49828;SDS011;35723;51.194;5.112;2023-06-26T07:05:37;16.98;;;2.88;;
49828;SDS011;35723;51.194;5.112;2023-06-26T07:08:03;14.20;;;2.75;;
49828;SDS011;35723;51.194;5.112;2023-06-26T07:10:29;14.93;;;3.22;;
49828;SDS011;35723;51.194;5.112;2023-06-26T07:12:55;16.33;;;3.15;;
49828;SDS011;35723;51.194;5.112;2023-06-26T07:15:21;12.05;;;2.67;;
49828;SDS011;35723;51.194;5.112;2023-06-26T07:17:47;17.10;;;2.78;;
49828;SDS011;35723;51.194;5.112;2023-06-26T07:20:12;12.30;;;2.80;;
49828;SDS011;35723;51.194;5.112;2023-06-26T07:22:40;10.65;;;2.22;;
49828;SDS011;35723;51.194;5.112;2023-06-26T07:25:07;16.73;;;2.90;;
49828;SDS011;35723;51.194;5.112;2023-06-26T07:27:39;17.08;;;2.95;;
49828;SDS011;35723;51.194;5.112;2023-06-26T07:30:06;12.65;;;2.72;;
49828;SDS011;35723;51.194;5.112;2023-06-26T07:32:35;14.00;;;2.90;;
49828;SDS011;35723;51.194;5.112;2023-06-26T07:35:01;13.45;;;2.50;;
49828;SDS011;35723;51.194;5.112;2023-06-26T07:37:27;11.82;;;2.60;;
49828;SDS011;35723;51.194;5.112;2023-06-26T07:39:52;18.63;;;2.90;;
49828;SDS011;35723;51.194;5.112;2023-06-26T07:42:18;13.50;;;3.00;;
49828;SDS011;35723;51.194;5.112;2023-06-26T07:44:44;16.83;;;2.47;;
49828;SDS011;35723;51.194;5.112;2023-06-26T07:47:10;14.85;;;3.20;;
49828;SDS011;35723;51.194;5.112;2023-06-26T07:49:35;11.25;;;2.20;;
49828;SDS011;35723;51.194;5.112;2023-06-26T07:52:01;9.27;;;2.15;;
49828;SDS011;35723;51.194;5.112;2023-06-26T07:54:28;12.05;;;2.35;;
49828;SDS011;35723;51.194;5.112;2023-06-26T07:56:58;10.90;;;2.38;;
49828;SDS011;35723;51.194;5.112;2023-06-26T07:59:26;9.48;;;2.38;;
49828;SDS011;35723;51.194;5.112;2023-06-26T08:01:53;8.85;;;1.90;;
49828;SDS011;35723;51.194;5.112;2023-06-26T08:04:21;12.30;;;2.13;;
49828;SDS011;35723;51.194;5.112;2023-06-26T08:06:49;9.95;;;1.98;;
49828;SDS011;35723;51.194;5.112;2023-06-26T08:09:16;11.45;;;2.40;;
49828;SDS011;35723;51.194;5.112;2023-06-26T08:11:42;10.55;;;2.03;;
49828;SDS011;35723;51.194;5.112;2023-06-26T08:14:07;10.05;;;2.30;;
49828;SDS011;35723;51.194;5.112;2023-06-26T08:16:33;10.93;;;2.38;;
49828;SDS011;35723;51.194;5.112;2023-06-26T08:18:59;10.55;;;2.35;;
49828;SDS011;35723;51.194;5.112;2023-06-26T08:21:26;11.85;;;2.47;;
49828;SDS011;35723;51.194;5.112;2023-06-26T08:23:51;9.13;;;2.45;;
49828;SDS011;35723;51.194;5.112;2023-06-26T08:26:17;10.05;;;2.38;;
49828;SDS011;35723;51.194;5.112;2023-06-26T08:28:43;11.50;;;2.40;;
49828;SDS011;35723;51.194;5.112;2023-06-26T08:31:08;9.77;;;2.28;;
49828;SDS011;35723;51.194;5.112;2023-06-26T08:33:34;11.65;;;1.98;;
49828;SDS011;35723;51.194;5.112;2023-06-26T08:35:59;8.93;;;1.90;;
49828;SDS011;35723;51.194;5.112;2023-06-26T08:38:25;13.68;;;2.53;;
49828;SDS011;35723;51.194;5.112;2023-06-26T08:40:51;11.35;;;2.28;;
49828;SDS011;35723;51.194;5.112;2023-06-26T08:43:17;9.18;;;2.05;;
49828;SDS011;35723;51.194;5.112;2023-06-26T08:45:42;7.28;;;1.90;;
49828;SDS011;35723;51.194;5.112;2023-06-26T08:48:08;16.15;;;2.30;;
49828;SDS011;35723;51.194;5.112;2023-06-26T08:50:35;9.85;;;2.17;;
49828;SDS011;35723;51.194;5.112;2023-06-26T08:58:32;11.88;;;1.95;;
49828;SDS011;35723;51.194;5.112;2023-06-26T09:00:58;8.68;;;1.70;;
49828;SDS011;35723;51.194;5.112;2023-06-26T09:03:25;6.82;;;1.67;;
49828;SDS011;35723;51.194;5.112;2023-06-26T09:05:51;4.25;;;1.50;;
49828;SDS011;35723;51.194;5.112;2023-06-26T09:08:17;9.80;;;1.70;;
49828;SDS011;35723;51.194;5.112;2023-06-26T09:10:42;6.32;;;1.30;;
49828;SDS011;35723;51.194;5.112;2023-06-26T09:13:08;6.45;;;1.70;;
49828;SDS011;35723;51.194;5.112;2023-06-26T09:15:37;6.00;;;1.73;;
49828;SDS011;35723;51.194;5.112;2023-06-26T09:18:06;4.28;;;1.58;;
49828;SDS011;35723;51.194;5.112;2023-06-26T09:20:33;9.32;;;2.00;;
49828;SDS011;35723;51.194;5.112;2023-06-26T09:22:59;10.85;;;1.90;;
49828;SDS011;35723;51.194;5.112;2023-06-26T09:25:25;6.82;;;1.60;;
49828;SDS011;35723;51.194;5.112;2023-06-26T09:27:51;10.18;;;1.95;;
49828;SDS011;35723;51.194;5.112;2023-06-26T09:30:18;9.00;;;2.10;;
49828;SDS011;35723;51.194;5.112;2023-06-26T09:32:44;9.13;;;2.00;;
49828;SDS011;35723;51.194;5.112;2023-06-26T09:35:11;9.27;;;1.98;;
49828;SDS011;35723;51.194;5.112;2023-06-26T09:37:37;10.88;;;2.25;;
49828;SDS011;35723;51.194;5.112;2023-06-26T09:40:03;12.38;;;2.00;;
49828;SDS011;35723;51.194;5.112;2023-06-26T09:42:33;11.45;;;2.20;;
49828;SDS011;35723;51.194;5.112;2023-06-26T09:44:59;7.22;;;1.80;;
49828;SDS011;35723;51.194;5.112;2023-06-26T09:47:25;6.53;;;1.80;;
49828;SDS011;35723;51.194;5.112;2023-06-26T09:49:51;11.70;;;1.77;;
49828;SDS011;35723;51.194;5.112;2023-06-26T09:52:20;15.10;;;2.08;;
49828;SDS011;35723;51.194;5.112;2023-06-26T09:54:45;6.30;;;1.80;;
49828;SDS011;35723;51.194;5.112;2023-06-26T09:57:12;13.95;;;1.98;;
49828;SDS011;35723;51.194;5.112;2023-06-26T09:59:40;11.55;;;1.98;;
49828;SDS011;35723;51.194;5.112;2023-06-26T10:02:07;9.65;;;1.65;;
49828;SDS011;35723;51.194;5.112;2023-06-26T10:04:33;6.90;;;1.80;;
49828;SDS011;35723;51.194;5.112;2023-06-26T10:07:01;8.93;;;1.88;;
49828;SDS011;35723;51.194;5.112;2023-06-26T10:09:29;7.82;;;2.00;;
49828;SDS011;35723;51.194;5.112;2023-06-26T10:11:57;7.13;;;1.88;;
49828;SDS011;35723;51.194;5.112;2023-06-26T10:14:35;9.68;;;2.00;;
49828;SDS011;35723;51.194;5.112;2023-06-26T10:17:03;8.30;;;1.75;;
49828;SDS011;35723;51.194;5.112;2023-06-26T10:19:32;7.68;;;1.50;;
49828;SDS011;35723;51.194;5.112;2023-06-26T10:22:00;8.40;;;1.73;;
49828;SDS011;35723;51.194;5.112;2023-06-26T10:24:28;6.90;;;1.50;;
49828;SDS011;35723;51.194;5.112;2023-06-26T10:27:01;7.22;;;1.55;;
49828;SDS011;35723;51.194;5.112;2023-06-26T10:29:32;9.55;;;1.95;;
49828;SDS011;35723;51.194;5.112;2023-06-26T10:32:00;6.22;;;1.50;;
49828;SDS011;35723;51.194;5.112;2023-06-26T10:34:29;6.43;;;1.50;;
49828;SDS011;35723;51.194;5.112;2023-06-26T10:36:59;10.77;;;1.95;;
49828;SDS011;35723;51.194;5.112;2023-06-26T10:39:26;5.97;;;1.80;;
49828;SDS011;35723;51.194;5.112;2023-06-26T10:41:54;7.32;;;1.70;;
49828;SDS011;35723;51.194;5.112;2023-06-26T10:44:39;9.20;;;1.67;;
49828;SDS011;35723;51.194;5.112;2023-06-26T10:47:10;9.57;;;1.80;;
49828;SDS011;35723;51.194;5.112;2023-06-26T10:49:37;6.65;;;1.65;;
49828;SDS011;35723;51.194;5.112;2023-06-26T10:52:13;13.10;;;2.28;;
49828;SDS011;35723;51.194;5.112;2023-06-26T10:54:39;9.77;;;1.70;;
49828;SDS011;35723;51.194;5.112;2023-06-26T10:57:05;9.57;;;1.90;;
49828;SDS011;35723;51.194;5.112;2023-06-26T10:59:33;8.35;;;1.88;;
49828;SDS011;35723;51.194;5.112;2023-06-26T11:01:59;9.77;;;1.92;;
49828;SDS011;35723;51.194;5.112;2023-06-26T11:04:45;8.80;;;2.00;;
49828;SDS011;35723;51.194;5.112;2023-06-26T11:07:25;7.28;;;1.85;;
49828;SDS011;35723;51.194;5.112;2023-06-26T11:10:09;9.00;;;1.88;;
49828;SDS011;35723;51.194;5.112;2023-06-26T11:12:38;8.45;;;2.10;;
49828;SDS011;35723;51.194;5.112;2023-06-26T11:15:13;10.65;;;2.20;;
49828;SDS011;35723;51.194;5.112;2023-06-26T11:17:41;12.85;;;1.90;;
49828;SDS011;35723;51.194;5.112;2023-06-26T11:20:08;7.28;;;1.75;;
49828;SDS011;35723;51.194;5.112;2023-06-26T11:22:36;8.38;;;1.90;;
49828;SDS011;35723;51.194;5.112;2023-06-26T11:25:03;5.80;;;1.88;;
49828;SDS011;35723;51.194;5.112;2023-06-26T11:27:39;11.05;;;1.92;;
49828;SDS011;35723;51.194;5.112;2023-06-26T11:30:07;10.75;;;2.30;;
49828;SDS011;35723;51.194;5.112;2023-06-26T11:32:36;9.57;;;2.05;;
49828;SDS011;35723;51.194;5.112;2023-06-26T11:35:03;9.20;;;1.90;;
49828;SDS011;35723;51.194;5.112;2023-06-26T11:37:34;8.70;;;1.75;;
49828;SDS011;35723;51.194;5.112;2023-06-26T11:40:06;9.15;;;1.73;;
49828;SDS011;35723;51.194;5.112;2023-06-26T11:42:41;8.07;;;1.95;;
49828;SDS011;35723;51.194;5.112;2023-06-26T11:45:07;8.48;;;1.80;;
49828;SDS011;35723;51.194;5.112;2023-06-26T11:47:34;5.72;;;2.08;;
49828;SDS011;35723;51.194;5.112;2023-06-26T11:49:59;7.88;;;1.70;;
49828;SDS011;35723;51.194;5.112;2023-06-26T11:52:30;6.85;;;1.70;;
49828;SDS011;35723;51.194;5.112;2023-06-26T11:54:58;7.00;;;2.08;;
49828;SDS011;35723;51.194;5.112;2023-06-26T11:57:23;11.52;;;1.80;;
49828;SDS011;35723;51.194;5.112;2023-06-26T11:59:49;7.63;;;1.90;;
49828;SDS011;35723;51.194;5.112;2023-06-26T12:02:16;10.63;;;2.10;;
49828;SDS011;35723;51.194;5.112;2023-06-26T12:04:42;8.40;;;1.90;;
49828;SDS011;35723;51.194;5.112;2023-06-26T12:07:09;6.15;;;1.73;;
49828;SDS011;35723;51.194;5.112;2023-06-26T12:09:44;5.65;;;1.73;;
49828;SDS011;35723;51.194;5.112;2023-06-26T12:12:11;8.00;;;1.75;;
49828;SDS011;35723;51.194;5.112;2023-06-26T12:14:39;5.63;;;1.67;;
49828;SDS011;35723;51.194;5.112;2023-06-26T12:17:09;8.43;;;2.20;;
49828;SDS011;35723;51.194;5.112;2023-06-26T12:19:45;7.63;;;2.15;;
49828;SDS011;35723;51.194;5.112;2023-06-26T12:22:15;8.40;;;2.20;;
49828;SDS011;35723;51.194;5.112;2023-06-26T12:24:42;5.03;;;1.52;;
49828;SDS011;35723;51.194;5.112;2023-06-26T12:27:09;8.25;;;1.80;;
49828;SDS011;35723;51.194;5.112;2023-06-26T12:29:37;5.13;;;1.80;;
49828;SDS011;35723;51.194;5.112;2023-06-26T12:32:08;8.48;;;1.60;;
49828;SDS011;35723;51.194;5.112;2023-06-26T12:34:35;7.50;;;1.70;;
49828;SDS011;35723;51.194;5.112;2023-06-26T12:37:04;3.90;;;1.45;;
49828;SDS011;35723;51.194;5.112;2023-06-26T12:39:50;4.78;;;1.60;;
49828;SDS011;35723;51.194;5.112;2023-06-26T12:42:23;7.70;;;1.73;;
49828;SDS011;35723;51.194;5.112;2023-06-26T12:44:52;7.53;;;1.80;;
49828;SDS011;35723;51.194;5.112;2023-06-26T12:47:26;8.93;;;1.95;;
49828;SDS011;35723;51.194;5.112;2023-06-26T12:49:53;6.60;;;1.60;;
49828;SDS011;35723;51.194;5.112;2023-06-26T12:52:19;6.13;;;1.90;;
49828;SDS011;35723;51.194;5.112;2023-06-26T12:54:46;6.63;;;1.50;;
49828;SDS011;35723;51.194;5.112;2023-06-26T12:57:16;5.85;;;1.60;;
49828;SDS011;35723;51.194;5.112;2023-06-26T12:59:42;6.38;;;1.80;;
49828;SDS011;35723;51.194;5.112;2023-06-26T13:02:08;5.82;;;1.90;;
49828;SDS011;35723;51.194;5.112;2023-06-26T13:04:36;7.00;;;1.80;;
49828;SDS011;35723;51.194;5.112;2023-06-26T13:07:04;7.45;;;1.90;;
49828;SDS011;35723;51.194;5.112;2023-06-26T13:09:31;6.97;;;2.20;;
49828;SDS011;35723;51.194;5.112;2023-06-26T13:11:58;7.60;;;1.90;;
49828;SDS011;35723;51.194;5.112;2023-06-26T13:14:24;6.40;;;1.58;;
49828;SDS011;35723;51.194;5.112;2023-06-26T13:16:50;8.00;;;2.13;;
49828;SDS011;35723;51.194;5.112;2023-06-26T13:19:15;5.63;;;1.60;;
49828;SDS011;35723;51.194;5.112;2023-06-26T13:21:41;7.68;;;1.48;;
49828;SDS011;35723;51.194;5.112;2023-06-26T13:24:07;6.80;;;1.65;;
49828;SDS011;35723;51.194;5.112;2023-06-26T13:26:32;9.63;;;2.00;;
49828;SDS011;35723;51.194;5.112;2023-06-26T13:28:58;7.55;;;2.00;;
49828;SDS011;35723;51.194;5.112;2023-06-26T13:31:24;6.20;;;1.98;;
49828;SDS011;35723;51.194;5.112;2023-06-26T13:33:50;10.50;;;2.00;;
49828;SDS011;35723;51.194;5.112;2023-06-26T13:36:19;9.48;;;1.77;;
49828;SDS011;35723;51.194;5.112;2023-06-26T13:38:46;6.03;;;2.00;;
49828;SDS011;35723;51.194;5.112;2023-06-26T13:41:14;7.35;;;1.75;;
49828;SDS011;35723;51.194;5.112;2023-06-26T13:43:39;6.63;;;1.90;;
49828;SDS011;35723;51.194;5.112;2023-06-26T13:46:05;4.55;;;1.52;;
49828;SDS011;35723;51.194;5.112;2023-06-26T13:48:31;5.80;;;1.80;;
49828;SDS011;35723;51.194;5.112;2023-06-26T13:50:58;9.27;;;2.10;;
49828;SDS011;35723;51.194;5.112;2023-06-26T13:53:24;8.55;;;1.75;;
49828;SDS011;35723;51.194;5.112;2023-06-26T13:55:49;10.90;;;1.65;;
49828;SDS011;35723;51.194;5.112;2023-06-26T13:58:15;5.22;;;1.80;;
49828;SDS011;35723;51.194;5.112;2023-06-26T14:00:40;8.88;;;2.00;;
49828;SDS011;35723;51.194;5.112;2023-06-26T14:03:09;4.93;;;1.70;;
49828;SDS011;35723;51.194;5.112;2023-06-26T14:05:35;7.65;;;1.67;;
49828;SDS011;35723;51.194;5.112;2023-06-26T14:08:07;8.13;;;2.00;;
49828;SDS011;35723;51.194;5.112;2023-06-26T14:10:34;7.43;;;1.95;;
49828;SDS011;35723;51.194;5.112;2023-06-26T14:13:00;6.65;;;2.00;;
49828;SDS011;35723;51.194;5.112;2023-06-26T14:15:26;7.75;;;2.00;;
49828;SDS011;35723;51.194;5.112;2023-06-26T14:17:51;7.28;;;1.80;;
49828;SDS011;35723;51.194;5.112;2023-06-26T14:20:17;6.40;;;1.85;;
49828;SDS011;35723;51.194;5.112;2023-06-26T14:22:45;9.23;;;2.17;;
49828;SDS011;35723;51.194;5.112;2023-06-26T14:25:11;6.75;;;1.77;;
49828;SDS011;35723;51.194;5.112;2023-06-26T14:27:38;9.02;;;2.17;;
49828;SDS011;35723;51.194;5.112;2023-06-26T14:30:04;10.23;;;2.33;;
49828;SDS011;35723;51.194;5.112;2023-06-26T14:32:30;8.32;;;2.20;;
49828;SDS011;35723;51.194;5.112;2023-06-26T14:34:56;6.55;;;2.05;;
49828;SDS011;35723;51.194;5.112;2023-06-26T14:37:23;6.32;;;1.75;;
49828;SDS011;35723;51.194;5.112;2023-06-26T14:39:49;7.18;;;2.08;;
49828;SDS011;35723;51.194;5.112;2023-06-26T14:42:15;8.73;;;1.83;;
49828;SDS011;35723;51.194;5.112;2023-06-26T14:44:40;9.15;;;2.10;;
49828;SDS011;35723;51.194;5.112;2023-06-26T14:47:06;5.97;;;1.80;;
49828;SDS011;35723;51.194;5.112;2023-06-26T14:49:32;6.22;;;1.83;;
49828;SDS011;35723;51.194;5.112;2023-06-26T14:51:58;4.60;;;1.67;;
49828;SDS011;35723;51.194;5.112;2023-06-26T14:54:23;6.03;;;1.65;;